Time;durP1;ratioP1;P1;durP2;ratioP2;P2;SDS_P1;SDS_P2;PMS_P1;PMS_P2;Temp;Humidity;BMP_temperature;BMP_pressure;BME280_temperature;BME280_humidity;BME280_pressure;Samples;Min_cycle;Max_cycle;Signal;HPM_P1;HPM_P2
2021/06/05 00:01:32;;;;;;;;;;;17.10;77.20;;;;;;5094793;28;20288;-72
2021/06/05 00:03:58;;;;;;;;;;;17.10;77.30;;;;;;5093640;28;20406;-70
2021/06/05 00:06:24;;;;;;;;;;;17.00;77.50;;;;;;5095055;28;19923;-71
2021/06/05 00:08:50;;;;;;;;;;;17.00;77.70;;;;;;5093171;28;19924;-72
2021/06/05 00:11:17;;;;;;;;;;;17.00;77.80;;;;;;5094809;28;20272;-72
2021/06/05 00:13:45;;;;;;;;;;;17.00;77.90;;;;;;5094236;28;20431;-72
2021/06/05 00:16:15;;;;;;;;;;;16.90;78.00;;;;;;5094161;28;20315;-72
2021/06/05 00:18:42;;;;;;;;;;;16.90;78.20;;;;;;5094663;28;19923;-72
2021/06/05 00:21:07;;;;;;;;;;;16.90;78.40;;;;;;5094189;28;19916;-70
2021/06/05 00:23:33;;;;;;;;;;;16.80;78.50;;;;;;5093742;28;20283;-71
2021/06/05 00:25:58;;;;;;;;;;;16.80;78.60;;;;;;5094358;28;19947;-72
2021/06/05 00:28:25;;;;;;;;;;;16.70;78.70;;;;;;5093907;28;19912;-72
2021/06/05 00:30:51;;;;;;;;;;;16.80;78.90;;;;;;5094277;28;19916;-71
2021/06/05 00:33:17;;;;;;;;;;;16.70;79.10;;;;;;5093111;28;19922;-71
2021/06/05 00:35:42;;;;;;;;;;;16.70;79.20;;;;;;5094117;28;19916;-71
2021/06/05 00:38:08;;;;;;;;;;;16.70;79.30;;;;;;5094199;28;19922;-70
2021/06/05 00:40:38;;;;;;;;;;;16.60;79.40;;;;;;5093640;28;19916;-72
2021/06/05 00:43:04;;;;;;;;;;;16.60;79.60;;;;;;5093304;28;19920;-71
2021/06/05 00:45:34;;;;;;;;;;;16.50;79.70;;;;;;5092300;28;19923;-72
2021/06/05 00:48:01;;;;;;;;;;;16.50;79.90;;;;;;5092189;28;19968;-71
2021/06/05 00:50:29;;;;;;;;;;;16.50;80.10;;;;;;5094023;28;19916;-71
2021/06/05 00:52:58;;;;;;;;;;;16.50;80.20;;;;;;5091426;28;19921;-70
2021/06/05 00:55:24;;;;;;;;;;;16.50;80.40;;;;;;5092333;28;19924;-70
2021/06/05 00:57:50;;;;;;;;;;;16.50;80.50;;;;;;5092036;28;20003;-72
2021/06/05 01:00:29;;;;;;;;;;;16.50;80.50;;;;;;5093796;28;19999;-71
2021/06/05 01:02:58;;;;;;;;;;;16.40;80.60;;;;;;5091281;28;19916;-72
2021/06/05 01:05:24;;;;;;;;;;;16.40;80.70;;;;;;5093604;28;19912;-70
2021/06/05 01:07:51;;;;;;;;;;;16.40;80.90;;;;;;5092220;28;19973;-70
2021/06/05 01:10:22;;;;;;;;;;;16.40;81.00;;;;;;5093185;28;20295;-70
2021/06/05 01:12:54;;;;;;;;;;;16.40;81.10;;;;;;5092827;28;19920;-70
2021/06/05 01:15:25;;;;;;;;;;;16.40;81.20;;;;;;5092865;28;19920;-71
2021/06/05 01:17:56;;;;;;;;;;;16.40;81.30;;;;;;5093352;28;19925;-71
2021/06/05 01:20:27;;;;;;;;;;;16.30;81.20;;;;;;5092988;28;20035;-71
2021/06/05 01:23:05;;;;;;;;;;;16.40;81.40;;;;;;5091375;28;20007;-70
2021/06/05 01:25:36;;;;;;;;;;;16.30;81.40;;;;;;5092841;28;20018;-70
2021/06/05 01:28:06;;;;;;;;;;;16.30;81.50;;;;;;5093236;28;19916;-71
2021/06/05 01:30:34;;;;;;;;;;;16.20;81.60;;;;;;5091436;28;19964;-72
2021/06/05 01:33:02;;;;;;;;;;;16.20;81.70;;;;;;5092341;28;19916;-71
2021/06/05 01:35:30;;;;;;;;;;;16.20;81.80;;;;;;5092883;28;19948;-72
2021/06/05 01:37:58;;;;;;;;;;;16.20;82.00;;;;;;5091609;28;19919;-72
2021/06/05 01:40:26;;;;;;;;;;;16.20;82.00;;;;;;5091707;28;20365;-71
2021/06/05 01:42:52;;;;;;;;;;;16.10;82.10;;;;;;5092007;28;19922;-72
2021/06/05 01:45:26;;;;;;;;;;;16.10;82.30;;;;;;5091374;28;20000;-70
2021/06/05 01:47:53;;;;;;;;;;;16.10;82.30;;;;;;5092290;28;19969;-70
2021/06/05 01:50:21;;;;;;;;;;;16.00;82.40;;;;;;5091440;28;19919;-71
2021/06/05 01:52:48;;;;;;;;;;;16.00;82.50;;;;;;5092447;28;19916;-71
2021/06/05 01:55:16;;;;;;;;;;;16.00;82.50;;;;;;5090697;28;19965;-72
2021/06/05 01:57:44;;;;;;;;;;;15.90;82.60;;;;;;5092641;28;19922;-71
2021/06/05 02:00:24;;;;;;;;;;;15.90;82.70;;;;;;5090400;28;20007;-71
2021/06/05 02:02:52;;;;;;;;;;;15.90;82.80;;;;;;5092194;28;19970;-72
2021/06/05 02:05:25;;;;;;;;;;;15.90;83.00;;;;;;5090636;28;19940;-72
2021/06/05 02:07:53;;;;;;;;;;;15.80;83.10;;;;;;5091147;28;19923;-72
2021/06/05 02:10:24;;;;;;;;;;;15.80;83.30;;;;;;5090796;28;19964;-70
2021/06/05 02:12:51;;;;;;;;;;;15.80;83.60;;;;;;5090536;28;20003;-71
2021/06/05 02:15:57;;;;;;;;;;;15.80;83.60;;;;;;5090496;28;20403;-71
2021/06/05 02:18:28;;;;;;;;;;;15.80;83.60;;;;;;5078976;28;20394;-72
2021/06/05 02:21:05;;;;;;;;;;;15.70;83.60;;;;;;5090949;28;20426;-72
2021/06/05 02:23:36;;;;;;;;;;;15.70;83.60;;;;;;5090501;28;19982;-71
2021/06/05 02:26:02;;;;;;;;;;;15.70;83.70;;;;;;5091710;28;19938;-71
2021/06/05 02:28:29;;;;;;;;;;;15.60;83.80;;;;;;5092158;28;19920;-71
2021/06/05 02:30:55;;;;;;;;;;;15.60;84.00;;;;;;5091649;28;20291;-70
2021/06/05 02:33:22;;;;;;;;;;;15.50;84.00;;;;;;5091313;28;19939;-72
2021/06/05 02:35:49;;;;;;;;;;;15.50;84.20;;;;;;5090569;28;19916;-70
2021/06/05 02:38:25;;;;;;;;;;;15.50;84.30;;;;;;5090625;28;19920;-70
2021/06/05 02:40:56;;;;;;;;;;;15.50;84.40;;;;;;5090561;28;19927;-71
2021/06/05 02:43:28;;;;;;;;;;;15.40;84.50;;;;;;5089359;28;20265;-71
2021/06/05 02:46:04;;;;;;;;;;;15.40;84.60;;;;;;5090678;28;19916;-71
2021/06/05 02:48:45;;;;;;;;;;;15.40;84.70;;;;;;5091368;28;19916;-70
2021/06/05 02:51:13;;;;;;;;;;;15.40;84.90;;;;;;5090495;28;19916;-73
2021/06/05 02:53:40;;;;;;;;;;;15.30;84.90;;;;;;5089380;28;19920;-72
2021/06/05 02:56:07;;;;;;;;;;;15.40;85.00;;;;;;5091599;28;20012;-71
2021/06/05 02:58:35;;;;;;;;;;;15.40;85.10;;;;;;5091424;28;20404;-71
2021/06/05 03:01:05;;;;;;;;;;;15.40;85.20;;;;;;5091833;28;19997;-71
2021/06/05 03:03:32;;;;;;;;;;;15.40;85.30;;;;;;5089598;28;19920;-71
2021/06/05 03:05:58;;;;;;;;;;;15.30;85.30;;;;;;5089814;28;19986;-70
2021/06/05 03:08:27;;;;;;;;;;;15.30;85.40;;;;;;5090350;28;19916;-71
2021/06/05 03:10:57;;;;;;;;;;;15.30;85.60;;;;;;5092692;28;20395;-72
2021/06/05 03:13:24;;;;;;;;;;;15.30;85.70;;;;;;5093635;28;20484;-70
2021/06/05 03:15:50;;;;;;;;;;;15.30;85.80;;;;;;5094521;28;20351;-71
2021/06/05 03:18:20;;;;;;;;;;;15.30;85.80;;;;;;5095618;28;19923;-72
2021/06/05 03:20:47;;;;;;;;;;;15.40;86.00;;;;;;5094256;28;19925;-71
2021/06/05 03:23:14;;;;;;;;;;;15.40;86.10;;;;;;5092956;28;19920;-71
2021/06/05 03:25:40;;;;;;;;;;;15.40;86.20;;;;;;5094197;28;19916;-72
2021/06/05 03:28:07;;;;;;;;;;;15.50;86.20;;;;;;5095515;28;19916;-72
2021/06/05 03:30:33;;;;;;;;;;;15.50;86.20;;;;;;5095228;28;19916;-72
2021/06/05 03:32:58;;;;;;;;;;;15.50;86.10;;;;;;5094702;28;19920;-72
2021/06/05 03:35:24;;;;;;;;;;;15.50;86.10;;;;;;5093368;28;19926;-72
2021/06/05 03:37:50;;;;;;;;;;;15.50;86.60;;;;;;5093911;28;19916;-71
2021/06/05 03:40:20;;;;;;;;;;;15.50;86.10;;;;;;5094074;28;19971;-70
2021/06/05 03:42:47;;;;;;;;;;;15.50;86.20;;;;;;5093156;28;20490;-71
2021/06/05 03:45:15;;;;;;;;;;;15.50;86.20;;;;;;5148612;22;20003;-64
2021/06/05 03:47:42;;;;;;;;;;;15.50;86.30;;;;;;5093151;28;19920;-64
2021/06/05 03:50:09;;;;;;;;;;;15.40;86.30;;;;;;5093331;28;20011;-64
2021/06/05 03:52:37;;;;;;;;;;;15.50;86.50;;;;;;5093269;28;19912;-64
2021/06/05 03:55:04;;;;;;;;;;;15.40;86.50;;;;;;5093098;28;19924;-64
2021/06/05 03:57:32;;;;;;;;;;;15.50;86.60;;;;;;5093242;28;19917;-64
2021/06/05 03:59:58;;;;;;;;;;;15.50;86.60;;;;;;5093120;28;20366;-64
2021/06/05 04:02:24;;;;;;;;;;;15.50;86.70;;;;;;5094807;28;19924;-64
2021/06/05 04:04:50;;;;;;;;;;;15.50;86.70;;;;;;5094514;28;19917;-64
2021/06/05 04:07:16;;;;;;;;;;;15.50;86.70;;;;;;5076087;28;19916;-64
2021/06/05 04:09:42;;;;;;;;;;;15.60;86.80;;;;;;5094608;28;19973;-64
2021/06/05 04:12:09;;;;;;;;;;;15.60;86.90;;;;;;5094654;28;19920;-64
2021/06/05 04:14:34;;;;;;;;;;;15.60;87.00;;;;;;5093920;28;19920;-64
2021/06/05 04:17:00;;;;;;;;;;;15.70;87.10;;;;;;5094728;28;19969;-64
2021/06/05 04:19:25;;;;;;;;;;;15.80;87.10;;;;;;5094188;28;20398;-64
2021/06/05 04:21:52;;;;;;;;;;;15.90;87.10;;;;;;5093647;28;19916;-64
2021/06/05 04:24:18;;;;;;;;;;;15.90;87.00;;;;;;5094156;28;19917;-65
2021/06/05 04:26:43;;;;;;;;;;;16.00;86.90;;;;;;5092491;28;19923;-64
2021/06/05 04:29:09;;;;;;;;;;;16.10;87.00;;;;;;5094156;28;19961;-64
2021/06/05 04:31:34;;;;;;;;;;;16.10;87.00;;;;;;5093165;28;19924;-65
2021/06/05 04:34:00;;;;;;;;;;;16.20;86.90;;;;;;5093256;28;20435;-65
2021/06/05 04:36:27;;;;;;;;;;;16.30;86.90;;;;;;5092885;28;19963;-65
2021/06/05 04:38:53;;;;;;;;;;;16.40;86.70;;;;;;5093841;28;19916;-65
2021/06/05 04:41:19;;;;;;;;;;;16.60;86.60;;;;;;5093908;28;19923;-66
2021/06/05 04:43:45;;;;;;;;;;;16.70;86.50;;;;;;5093795;28;19920;-65
2021/06/05 04:46:13;;;;;;;;;;;16.80;86.50;;;;;;5093215;28;20017;-65
2021/06/05 04:48:39;;;;;;;;;;;17.00;86.30;;;;;;5094236;28;19920;-65
2021/06/05 04:51:05;;;;;;;;;;;17.10;86.10;;;;;;5093568;28;19923;-65
2021/06/05 04:53:31;;;;;;;;;;;17.30;85.90;;;;;;5093576;28;19916;-65
2021/06/05 04:55:57;;;;;;;;;;;17.60;85.70;;;;;;5093694;28;19939;-62
2021/06/05 04:58:23;;;;;;;;;;;17.80;85.10;;;;;;5091960;28;19959;-62
2021/06/05 05:00:49;;;;;;;;;;;18.00;84.50;;;;;;5092353;28;20356;-62
2021/06/05 05:03:16;;;;;;;;;;;18.20;83.90;;;;;;5092017;28;19916;-62
2021/06/05 05:05:42;;;;;;;;;;;18.50;83.50;;;;;;5093205;28;20278;-61
2021/06/05 05:08:09;;;;;;;;;;;18.60;82.70;;;;;;5093613;28;19981;-61
2021/06/05 05:10:37;;;;;;;;;;;18.90;82.80;;;;;;5093138;28;19917;-62
2021/06/05 05:13:02;;;;;;;;;;;19.00;81.60;;;;;;5093183;28;19916;-62
2021/06/05 05:15:28;;;;;;;;;;;19.20;80.60;;;;;;5093344;28;19981;-61
2021/06/05 05:17:54;;;;;;;;;;;19.30;79.90;;;;;;5093080;28;20334;-61
2021/06/05 05:20:21;;;;;;;;;;;19.50;79.30;;;;;;5093237;28;19966;-61
2021/06/05 05:22:46;;;;;;;;;;;19.60;78.80;;;;;;5091270;28;19942;-62
2021/06/05 05:25:12;;;;;;;;;;;19.70;78.20;;;;;;5093045;28;20283;-62
2021/06/05 05:27:38;;;;;;;;;;;19.70;77.20;;;;;;5091870;28;19916;-62
2021/06/05 05:30:05;;;;;;;;;;;19.70;76.70;;;;;;5092714;28;20011;-61
2021/06/05 05:32:31;;;;;;;;;;;19.80;76.40;;;;;;5091507;28;19920;-62
2021/06/05 05:34:56;;;;;;;;;;;19.80;76.10;;;;;;5091770;28;19927;-62
2021/06/05 05:37:22;;;;;;;;;;;20.00;76.30;;;;;;5091324;28;19920;-62
2021/06/05 05:39:47;;;;;;;;;;;20.20;75.60;;;;;;5091631;28;19916;-62
2021/06/05 05:42:13;;;;;;;;;;;20.50;75.50;;;;;;5092390;28;19916;-62
2021/06/05 05:44:38;;;;;;;;;;;20.90;76.00;;;;;;5090982;28;19942;-62
2021/06/05 05:47:04;;;;;;;;;;;21.50;75.90;;;;;;5092728;28;19924;-62
2021/06/05 05:49:29;;;;;;;;;;;22.40;76.30;;;;;;5092306;28;20007;-63
2021/06/05 05:51:55;;;;;;;;;;;22.90;74.70;;;;;;5092671;28;19916;-62
2021/06/05 05:54:21;;;;;;;;;;;23.20;72.30;;;;;;5092354;28;19944;-62
2021/06/05 05:56:46;;;;;;;;;;;23.80;72.80;;;;;;5090634;28;19947;-63
2021/06/05 05:59:16;;;;;;;;;;;24.60;72.10;;;;;;5074439;28;19916;-63
2021/06/05 06:01:41;;;;;;;;;;;25.50;69.80;;;;;;5092159;28;20383;-64
2021/06/05 06:04:07;;;;;;;;;;;26.10;67.00;;;;;;5092404;28;19916;-63
2021/06/05 06:06:33;;;;;;;;;;;26.40;64.30;;;;;;5092333;28;19917;-62
2021/06/05 06:08:58;;;;;;;;;;;27.00;65.50;;;;;;5091966;28;19916;-63
2021/06/05 06:11:24;;;;;;;;;;;27.80;64.00;;;;;;5092440;28;19916;-63
2021/06/05 06:13:50;;;;;;;;;;;28.50;62.40;;;;;;5091752;28;20019;-63
2021/06/05 06:16:16;;;;;;;;;;;29.20;59.30;;;;;;5092131;28;19916;-63
2021/06/05 06:18:43;;;;;;;;;;;29.60;57.00;;;;;;5092167;28;20054;-64
2021/06/05 06:21:09;;;;;;;;;;;30.00;55.50;;;;;;5091541;28;19956;-64
2021/06/05 06:23:36;;;;;;;;;;;30.60;55.40;;;;;;5091924;28;19920;-63
2021/06/05 06:26:04;;;;;;;;;;;31.30;53.60;;;;;;5073768;28;19966;-65
2021/06/05 06:28:31;;;;;;;;;;;31.50;50.80;;;;;;5091594;28;20364;-66
2021/06/05 06:30:57;;;;;;;;;;;32.00;50.60;;;;;;5092060;28;20295;-64
2021/06/05 06:33:24;;;;;;;;;;;32.30;48.20;;;;;;5091089;28;19966;-63
2021/06/05 06:35:50;;;;;;;;;;;32.60;46.10;;;;;;5091823;28;19939;-68
2021/06/05 06:38:17;;;;;;;;;;;32.80;45.90;;;;;;5091893;28;19916;-68
2021/06/05 06:40:44;;;;;;;;;;;33.40;45.70;;;;;;5091429;28;19916;-68
2021/06/05 06:43:11;;;;;;;;;;;34.00;44.60;;;;;;5090160;28;20291;-69
2021/06/05 06:45:47;;;;;;;;;;;34.50;43.10;;;;;;5089525;28;19927;-69
2021/06/05 06:48:13;;;;;;;;;;;35.10;42.40;;;;;;5090443;28;19916;-68
2021/06/05 06:50:38;;;;;;;;;;;35.60;41.10;;;;;;5091621;28;19916;-68
2021/06/05 06:53:04;;;;;;;;;;;36.10;39.80;;;;;;5090835;28;19924;-68
2021/06/05 06:55:30;;;;;;;;;;;36.10;38.70;;;;;;5072786;28;21184;-63
2021/06/05 06:57:57;;;;;;;;;;;36.30;37.10;;;;;;5091601;28;19916;-63
2021/06/05 07:00:25;;;;;;;;;;;36.10;36.20;;;;;;5091548;28;19952;-68
2021/06/05 07:02:51;;;;;;;;;;;36.10;36.10;;;;;;5091518;28;19916;-65
2021/06/05 07:05:16;;;;;;;;;;;36.70;36.80;;;;;;5089941;28;19917;-65
2021/06/05 07:07:42;;;;;;;;;;;37.50;35.90;;;;;;5090232;28;19920;-68
2021/06/05 07:10:08;;;;;;;;;;;38.10;35.30;;;;;;5090251;28;19916;-68
2021/06/05 07:12:34;;;;;;;;;;;38.50;34.40;;;;;;5089532;28;19965;-66
2021/06/05 07:14:59;;;;;;;;;;;39.00;33.30;;;;;;5089905;28;20330;-68
2021/06/05 07:17:25;;;;;;;;;;;39.30;32.40;;;;;;5089691;28;19916;-67
2021/06/05 07:19:51;;;;;;;;;;;39.30;31.20;;;;;;5091435;28;19916;-65
2021/06/05 07:22:16;;;;;;;;;;;39.30;31.10;;;;;;5091265;28;19919;-66
2021/06/05 07:24:42;;;;;;;;;;;39.60;31.00;;;;;;5089320;28;19968;-66
2021/06/05 07:27:09;;;;;;;;;;;40.30;30.70;;;;;;5073117;28;20392;-66
2021/06/05 07:29:35;;;;;;;;;;;40.30;29.30;;;;;;5089824;28;19917;-65
2021/06/05 07:32:02;;;;;;;;;;;40.30;29.30;;;;;;5090770;28;19916;-66
2021/06/05 07:34:27;;;;;;;;;;;40.40;29.10;;;;;;5090726;28;19959;-66
2021/06/05 07:36:55;;;;;;;;;;;40.80;28.90;;;;;;5089637;28;20276;-66
2021/06/05 07:39:23;;;;;;;;;;;40.90;28.20;;;;;;5091117;28;19938;-66
2021/06/05 07:41:49;;;;;;;;;;;40.80;28.20;;;;;;5091171;28;19916;-67
2021/06/05 07:44:15;;;;;;;;;;;40.80;27.70;;;;;;5090520;28;19917;-66
2021/06/05 07:46:43;;;;;;;;;;;40.90;27.70;;;;;;5089740;28;19927;-67
2021/06/05 07:49:08;;;;;;;;;;;40.80;26.90;;;;;;5090531;28;19955;-66
2021/06/05 07:51:34;;;;;;;;;;;40.80;27.50;;;;;;5089671;28;20523;-67
2021/06/05 07:54:00;;;;;;;;;;;41.10;27.30;;;;;;5090465;28;19927;-68
2021/06/05 07:56:25;;;;;;;;;;;41.80;27.40;;;;;;5090686;28;19963;-68
2021/06/05 07:58:51;;;;;;;;;;;42.40;26.90;;;;;;5094799;28;20010;-68
2021/06/05 08:01:16;;;;;;;;;;;43.00;26.70;;;;;;5094907;28;19947;-66
2021/06/05 08:03:42;;;;;;;;;;;43.50;26.20;;;;;;5092877;28;20506;-66
2021/06/05 08:06:08;;;;;;;;;;;43.50;25.30;;;;;;5094550;28;19916;-66
2021/06/05 08:08:34;;;;;;;;;;;43.50;25.50;;;;;;5094198;28;19947;-66
2021/06/05 08:11:00;;;;;;;;;;;43.70;25.50;;;;;;5093493;28;20039;-67
2021/06/05 08:13:25;;;;;;;;;;;44.40;25.20;;;;;;5094259;28;19923;-68
2021/06/05 08:15:51;;;;;;;;;;;44.40;24.70;;;;;;5092648;28;19986;-67
2021/06/05 08:18:18;;;;;;;;;;;44.10;24.30;;;;;;5094658;28;19916;-68
2021/06/05 08:20:48;;;;;;;;;;;43.70;24.40;;;;;;5093549;28;19916;-66
2021/06/05 08:23:14;;;;;;;;;;;43.50;24.30;;;;;;5094148;28;19916;-67
2021/06/05 08:25:40;;;;;;;;;;;43.60;24.80;;;;;;5092991;28;19916;-68
2021/06/05 08:28:08;;;;;;;;;;;44.20;24.80;;;;;;5093962;28;19923;-68
2021/06/05 08:30:35;;;;;;;;;;;44.70;24.60;;;;;;5092829;28;19916;-68
2021/06/05 08:33:01;;;;;;;;;;;45.40;24.60;;;;;;5093616;28;19924;-69
2021/06/05 08:35:27;;;;;;;;;;;46.00;24.00;;;;;;5093994;28;19920;-68
2021/06/05 08:37:52;;;;;;;;;;;46.40;23.60;;;;;;5092851;28;19920;-68
2021/06/05 08:40:23;;;;;;;;;;;46.60;23.90;;;;;;5092469;28;20372;-68
2021/06/05 08:42:50;;;;;;;;;;;46.70;23.20;;;;;;5093912;28;19920;-68
2021/06/05 08:45:22;;;;;;;;;;;46.60;22.90;;;;;;5093254;28;19920;-68
2021/06/05 08:47:47;;;;;;;;;;;46.60;23.60;;;;;;5093939;28;19923;-68
2021/06/05 08:50:14;;;;;;;;;;;47.00;22.70;;;;;;5093770;28;20354;-68
2021/06/05 08:52:46;;;;;;;;;;;47.00;22.50;;;;;;5092099;28;19916;-69
2021/06/05 08:55:20;;;;;;;;;;;47.00;22.50;;;;;;5092267;28;19969;-68
2021/06/05 08:57:48;;;;;;;;;;;47.20;22.50;;;;;;5093249;28;19916;-68
2021/06/05 09:00:17;;;;;;;;;;;47.60;22.40;;;;;;5093372;28;19916;-68
2021/06/05 09:02:44;;;;;;;;;;;48.00;22.40;;;;;;5091825;28;19941;-68
2021/06/05 09:05:11;;;;;;;;;;;48.40;22.20;;;;;;5092118;28;19916;-68
2021/06/05 09:07:39;;;;;;;;;;;48.90;22.20;;;;;;5091932;28;19916;-69
2021/06/05 09:10:06;;;;;;;;;;;49.00;21.70;;;;;;5092159;28;20049;-68
2021/06/05 09:12:31;;;;;;;;;;;49.00;21.60;;;;;;5093438;28;19923;-69
2021/06/05 09:14:58;;;;;;;;;;;49.00;21.30;;;;;;5090990;28;19920;-66
2021/06/05 09:17:29;;;;;;;;;;;48.90;21.40;;;;;;5093529;28;20237;-66
2021/06/05 09:20:00;;;;;;;;;;;48.70;21.50;;;;;;5091470;28;20174;-65
2021/06/05 09:22:29;;;;;;;;;;;48.40;21.10;;;;;;5093310;28;20025;-66
2021/06/05 09:24:55;;;;;;;;;;;47.80;21.50;;;;;;5074659;28;19955;-66
2021/06/05 09:27:23;;;;;;;;;;;47.50;21.40;;;;;;5091496;28;19984;-67
2021/06/05 09:30:04;;;;;;;;;;;47.50;21.70;;;;;;5093047;28;20376;-69
2021/06/05 09:32:34;;;;;;;;;;;47.70;21.80;;;;;;5091397;28;19916;-66
2021/06/05 09:35:05;;;;;;;;;;;48.20;22.00;;;;;;5092622;28;19920;-67
2021/06/05 09:37:34;;;;;;;;;;;48.40;21.70;;;;;;5092446;28;19922;-67
2021/06/05 09:40:03;;;;;;;;;;;47.60;21.50;;;;;;5092712;28;19947;-66
2021/06/05 09:42:33;;;;;;;;;;;47.00;21.90;;;;;;5091420;28;19976;-66
2021/06/05 09:44:59;;;;;;;;;;;46.80;22.00;;;;;;5098683;22;19916;-69
2021/06/05 09:47:28;;;;;;;;;;;47.30;22.30;;;;;;5091628;28;19916;-70
2021/06/05 09:49:59;;;;;;;;;;;48.20;22.30;;;;;;5092148;28;19920;-70
2021/06/05 09:52:24;;;;;;;;;;;49.20;22.00;;;;;;5074441;28;19923;-70
2021/06/05 09:54:51;;;;;;;;;;;50.10;22.00;;;;;;5091607;28;20291;-69
2021/06/05 09:57:31;;;;;;;;;;;50.90;22.30;;;;;;5072212;28;19955;-70
2021/06/05 10:00:07;;;;;;;;;;;51.40;21.50;;;;;;5071700;28;19920;-67
2021/06/05 10:02:42;;;;;;;;;;;51.90;21.10;;;;;;5071692;28;19970;-70
2021/06/05 10:05:08;;;;;;;;;;;51.60;20.80;;;;;;5071129;28;20399;-70
2021/06/05 10:07:34;;;;;;;;;;;51.30;20.80;;;;;;5072050;28;19944;-70
2021/06/05 10:10:02;;;;;;;;;;;51.60;21.20;;;;;;5071873;28;19923;-71
2021/06/05 10:12:28;;;;;;;;;;;52.20;20.80;;;;;;5071728;28;19923;-70
2021/06/05 10:15:00;;;;;;;;;;;52.20;20.80;;;;;;5070245;28;19920;-72
2021/06/05 10:17:32;;;;;;;;;;;52.40;20.80;;;;;;5071460;28;19921;-72
2021/06/05 10:20:04;;;;;;;;;;;52.60;20.60;;;;;;5071174;28;19920;-73
2021/06/05 10:22:29;;;;;;;;;;;52.70;20.90;;;;;;5071423;28;19969;-72
2021/06/05 10:24:58;;;;;;;;;;;53.20;21.40;;;;;;5071334;28;19999;-72
2021/06/05 10:27:26;;;;;;;;;;;53.70;20.70;;;;;;5071623;28;19916;-72
2021/06/05 10:29:54;;;;;;;;;;;54.00;20.50;;;;;;5071066;28;19917;-72
2021/06/05 10:32:22;;;;;;;;;;;54.00;20.50;;;;;;5070469;28;20296;-71
2021/06/05 10:34:48;;;;;;;;;;;53.70;20.30;;;;;;5070803;28;19916;-71
2021/06/05 10:37:15;;;;;;;;;;;53.70;20.20;;;;;;5071449;28;19961;-72
2021/06/05 10:39:43;;;;;;;;;;;53.10;20.10;;;;;;5053570;28;19916;-71
2021/06/05 10:42:27;;;;;;;;;;;52.80;20.30;;;;;;5071304;28;19923;-73
2021/06/05 10:44:54;;;;;;;;;;;52.80;20.30;;;;;;5071193;28;19916;-72
2021/06/05 10:47:19;;;;;;;;;;;53.10;20.20;;;;;;5033372;28;19921;-71
2021/06/05 10:49:50;;;;;;;;;;;53.30;20.30;;;;;;5051282;28;19957;-72
2021/06/05 10:52:24;;;;;;;;;;;53.90;20.40;;;;;;5049647;28;20372;-72
2021/06/05 10:54:52;;;;;;;;;;;54.20;19.80;;;;;;5051114;28;20448;-72
2021/06/05 10:57:21;;;;;;;;;;;53.70;19.80;;;;;;5050681;28;19967;-71
2021/06/05 10:59:57;;;;;;;;;;;53.30;19.90;;;;;;5051079;28;19917;-73
2021/06/05 11:02:41;;;;;;;;;;;53.70;20.30;;;;;;5050768;28;19956;-73
2021/06/05 11:05:24;;;;;;;;;;;54.40;20.30;;;;;;5050882;28;19917;-72
2021/06/05 11:08:13;;;;;;;;;;;55.10;20.20;;;;;;5050624;28;19921;-73
2021/06/05 11:10:57;;;;;;;;;;;54.90;19.70;;;;;;5050673;28;19939;-73
2021/06/05 11:13:32;;;;;;;;;;;54.70;19.70;;;;;;5050869;28;20376;-72
2021/06/05 11:15:59;;;;;;;;;;;54.60;20.00;;;;;;5050624;28;19928;-72
2021/06/05 11:18:45;;;;;;;;;;;54.90;20.10;;;;;;5051168;28;19924;-71
2021/06/05 11:21:23;;;;;;;;;;;55.20;20.10;;;;;;5031405;28;19923;-71
2021/06/05 11:23:57;;;;;;;;;;;55.20;20.00;;;;;;5069866;28;19916;-74
2021/06/05 11:26:43;;;;;;;;;;;54.90;19.70;;;;;;5069610;28;19947;-75
2021/06/05 11:29:21;;;;;;;;;;;54.60;19.80;;;;;;5069356;28;20292;-73
2021/06/05 11:31:56;;;;;;;;;;;54.00;19.80;;;;;;5073517;28;19923;-72
2021/06/05 11:34:28;;;;;;;;;;;52.70;19.70;;;;;;5074203;28;19920;-72
2021/06/05 11:37:03;;;;;;;;;;;50.20;19.90;;;;;;5074938;28;20296;-71
2021/06/05 11:39:28;;;;;;;;;;;47.40;20.40;;;;;;5074535;28;19916;-72
2021/06/05 11:41:55;;;;;;;;;;;44.70;21.00;;;;;;5074823;28;20300;-71
2021/06/05 11:44:27;;;;;;;;;;;42.30;21.80;;;;;;5074732;28;19969;-71
2021/06/05 11:46:58;;;;;;;;;;;40.80;22.50;;;;;;5074387;28;19920;-71
2021/06/05 11:49:42;;;;;;;;;;;39.60;23.20;;;;;;5074724;28;19916;-71
2021/06/05 11:52:26;;;;;;;;;;;39.10;23.90;;;;;;5074475;28;19916;-71
2021/06/05 11:54:59;;;;;;;;;;;38.90;24.20;;;;;;5074477;28;19921;-71
2021/06/05 11:57:27;;;;;;;;;;;38.60;24.70;;;;;;5074303;28;19923;-71
2021/06/05 11:59:56;;;;;;;;;;;38.50;25.00;;;;;;5074376;28;20296;-71
2021/06/05 12:02:22;;;;;;;;;;;38.40;25.20;;;;;;5073110;28;20360;-71
2021/06/05 12:04:50;;;;;;;;;;;38.20;25.40;;;;;;5074386;28;19917;-72
2021/06/05 12:07:29;;;;;;;;;;;38.30;26.00;;;;;;5072784;28;19921;-70
2021/06/05 12:09:57;;;;;;;;;;;38.40;26.30;;;;;;5074471;28;19917;-70
2021/06/05 12:12:25;;;;;;;;;;;38.40;26.30;;;;;;5073948;28;19920;-70
2021/06/05 12:15:00;;;;;;;;;;;38.10;26.00;;;;;;5061821;28;19921;-71
2021/06/05 12:17:36;;;;;;;;;;;37.50;26.10;;;;;;5050260;28;20411;-70
2021/06/05 12:20:21;;;;;;;;;;;36.90;26.80;;;;;;5038813;28;19924;-71
2021/06/05 12:22:49;;;;;;;;;;;36.60;27.20;;;;;;5053108;28;20015;-70
2021/06/05 12:25:37;;;;;;;;;;;36.40;27.50;;;;;;5053830;28;19921;-71
2021/06/05 12:28:13;;;;;;;;;;;36.20;27.50;;;;;;5053535;28;19921;-71
2021/06/05 12:30:43;;;;;;;;;;;36.10;27.60;;;;;;5050270;28;19917;-71
2021/06/05 12:33:10;;;;;;;;;;;35.80;27.70;;;;;;5044538;28;19917;-71
2021/06/05 12:35:46;;;;;;;;;;;35.30;27.90;;;;;;5042811;28;19921;-70
2021/06/05 12:38:28;;;;;;;;;;;35.00;28.30;;;;;;5043432;28;19917;-70
2021/06/05 12:40:57;;;;;;;;;;;34.80;28.70;;;;;;5040514;28;19918;-70
2021/06/05 12:43:25;;;;;;;;;;;34.50;28.80;;;;;;5039243;28;20422;-70
2021/06/05 12:45:51;;;;;;;;;;;34.10;28.80;;;;;;5043132;28;20395;-69
2021/06/05 12:48:18;;;;;;;;;;;33.70;29.30;;;;;;5041582;28;19952;-69
2021/06/05 12:50:44;;;;;;;;;;;33.50;29.80;;;;;;5041719;28;19983;-70
2021/06/05 12:53:15;;;;;;;;;;;33.40;30.00;;;;;;5042465;28;19987;-71
2021/06/05 12:55:42;;;;;;;;;;;33.20;29.90;;;;;;5040508;28;19921;-70
2021/06/05 12:58:10;;;;;;;;;;;33.00;30.00;;;;;;5041327;28;19917;-71
2021/06/05 13:00:37;;;;;;;;;;;32.70;30.30;;;;;;5046463;28;19921;-70
2021/06/05 13:03:06;;;;;;;;;;;32.50;31.00;;;;;;5023884;28;20359;-71
2021/06/05 13:05:40;;;;;;;;;;;32.30;31.10;;;;;;5043473;28;19982;-70
2021/06/05 13:08:13;;;;;;;;;;;32.20;31.60;;;;;;5028634;28;20374;-71
2021/06/05 13:10:44;;;;;;;;;;;32.10;32.20;;;;;;5059720;28;19917;-70
2021/06/05 13:13:15;;;;;;;;;;;32.00;32.20;;;;;;5056493;28;19917;-70
2021/06/05 13:15:48;;;;;;;;;;;32.00;32.60;;;;;;5042048;28;20296;-70
2021/06/05 13:18:24;;;;;;;;;;;31.90;32.50;;;;;;5054434;28;19970;-70
2021/06/05 13:20:50;;;;;;;;;;;31.90;32.90;;;;;;5051636;28;19967;-70
2021/06/05 13:23:24;;;;;;;;;;;31.80;33.70;;;;;;5050604;28;19921;-70
2021/06/05 13:25:51;;;;;;;;;;;31.80;33.30;;;;;;5051147;28;20384;-70
2021/06/05 13:28:23;;;;;;;;;;;31.90;33.40;;;;;;5051137;28;20404;-70
2021/06/05 13:30:51;;;;;;;;;;;32.10;33.70;;;;;;5051371;28;19923;-70
2021/06/05 13:33:36;;;;;;;;;;;32.10;33.10;;;;;;5050400;28;19917;-71
2021/06/05 13:36:04;;;;;;;;;;;32.10;33.20;;;;;;5051203;28;20327;-71
2021/06/05 13:38:31;;;;;;;;;;;32.20;33.50;;;;;;5059181;28;20404;-70
2021/06/05 13:40:57;;;;;;;;;;;32.20;33.00;;;;;;5057089;28;19929;-70
2021/06/05 13:43:23;;;;;;;;;;;32.00;32.80;;;;;;5051324;28;19998;-70
2021/06/05 13:45:49;;;;;;;;;;;31.80;33.00;;;;;;5053901;28;19928;-71
2021/06/05 13:48:14;;;;;;;;;;;31.80;33.70;;;;;;5052391;28;19917;-70
2021/06/05 13:50:40;;;;;;;;;;;31.90;33.60;;;;;;5063847;28;20330;-70
2021/06/05 13:53:06;;;;;;;;;;;31.80;33.20;;;;;;5038664;28;19917;-70
2021/06/05 13:55:32;;;;;;;;;;;31.70;33.70;;;;;;5067531;28;19921;-70
2021/06/05 13:57:58;;;;;;;;;;;31.60;33.70;;;;;;5057274;28;19920;-70
2021/06/05 14:00:25;;;;;;;;;;;31.40;33.70;;;;;;5044754;28;19924;-71
2021/06/05 14:02:51;;;;;;;;;;;31.20;33.90;;;;;;5058070;28;19916;-70
2021/06/05 14:05:17;;;;;;;;;;;31.10;33.90;;;;;;5063220;28;20262;-71
2021/06/05 14:07:42;;;;;;;;;;;31.00;33.80;;;;;;5053765;28;19983;-71
2021/06/05 14:10:09;;;;;;;;;;;31.00;34.60;;;;;;5055371;28;20291;-71
2021/06/05 14:12:36;;;;;;;;;;;31.00;34.10;;;;;;5064212;28;19923;-70
2021/06/05 14:15:03;;;;;;;;;;;30.90;34.00;;;;;;5062327;28;19917;-71
2021/06/05 14:17:29;;;;;;;;;;;30.80;34.00;;;;;;5051513;28;20288;-70
2021/06/05 14:19:55;;;;;;;;;;;30.80;34.40;;;;;;5025747;28;20005;-70
2021/06/05 14:22:21;;;;;;;;;;;30.80;34.70;;;;;;5028700;28;19948;-68
2021/06/05 14:24:47;;;;;;;;;;;30.60;35.00;;;;;;5050281;28;19917;-70